Time;durP1;ratioP1;P1;durP2;ratioP2;P2;SDS_P1;SDS_P2;PMS_P1;PMS_P2;Temp;Humidity;BMP_temperature;BMP_pressure;BME280_temperature;BME280_humidity;BME280_pressure;Samples;Min_cycle;Max_cycle;Signal;HPM_P1;HPM_P2
2021/10/16 00:01:59;;;;;;;6.78;5.88;;;;;;;-139.48;100.00;61774.03;4992418;28;20474;-69
2021/10/16 00:04:43;;;;;;;10.13;6.88;;;;;;;-139.48;100.00;61774.03;4992492;28;20108;-70
2021/10/16 00:07:27;;;;;;;10.93;6.85;;;;;;;-139.48;100.00;61774.03;4992511;28;20168;-70
2021/10/16 00:10:11;;;;;;;8.95;6.75;;;;;;;-139.48;100.00;61774.03;4995159;28;20407;-70
2021/10/16 00:12:55;;;;;;;8.93;6.65;;;;;;;-139.48;100.00;61774.03;4995811;28;20052;-70
2021/10/16 00:15:39;;;;;;;14.60;7.57;;;;;;;-139.48;100.00;61774.03;4996140;28;20081;-70
2021/10/16 00:18:23;;;;;;;8.50;7.05;;;;;;;-139.48;100.00;61774.03;4996257;28;20049;-70
2021/10/16 00:21:07;;;;;;;10.68;7.63;;;;;;;-139.48;100.00;61774.03;4995740;28;20053;-70
2021/10/16 00:23:51;;;;;;;9.07;7.32;;;;;;;-139.48;100.00;61774.03;4995985;28;20123;-69
2021/10/16 00:26:34;;;;;;;10.50;8.15;;;;;;;-139.48;100.00;61774.03;4995457;28;20258;-70
2021/10/16 00:29:19;;;;;;;11.40;7.80;;;;;;;-139.48;100.00;61774.03;4995772;28;20050;-70
2021/10/16 00:32:03;;;;;;;12.55;8.07;;;;;;;-139.48;100.00;61774.03;4996458;28;20053;-70
2021/10/16 00:34:47;;;;;;;9.18;7.82;;;;;;;-139.48;100.00;61774.03;4981754;28;20049;-70
2021/10/16 00:37:31;;;;;;;11.95;8.68;;;;;;;-139.48;100.00;61774.03;4995639;28;20045;-70
2021/10/16 00:40:15;;;;;;;11.13;8.77;;;;;;;-139.48;100.00;61774.03;4982161;28;20133;-69
2021/10/16 00:42:59;;;;;;;13.30;10.15;;;;;;;-139.48;100.00;61774.03;4996374;28;20049;-70
2021/10/16 00:45:43;;;;;;;14.55;9.07;;;;;;;-139.48;100.00;61774.03;4995487;28;20104;-70
2021/10/16 00:48:27;;;;;;;10.88;8.23;;;;;;;-139.48;100.00;61774.03;4995210;28;20057;-69
2021/10/16 00:51:11;;;;;;;12.27;9.55;;;;;;;-139.48;100.00;61774.03;4996455;28;20118;-70
2021/10/16 00:53:55;;;;;;;12.18;10.18;;;;;;;-139.48;100.00;61774.03;4996327;28;20459;-69
2021/10/16 00:56:42;;;;;;;16.50;10.23;;;;;;;-139.48;100.00;61774.03;4996083;28;20104;-70
2021/10/16 00:59:26;;;;;;;12.90;10.05;;;;;;;-139.48;100.00;61774.03;4995012;28;20104;-70
2021/10/16 01:02:18;;;;;;;15.40;10.52;;;;;;;-139.48;100.00;61774.03;4996229;28;20515;-69
2021/10/16 01:05:04;;;;;;;13.63;10.02;;;;;;;-139.48;100.00;61774.03;4982381;28;20061;-70
2021/10/16 01:07:47;;;;;;;13.07;9.85;;;;;;;-139.48;100.00;61774.03;4981206;28;20470;-70
2021/10/16 01:10:31;;;;;;;15.15;10.85;;;;;;;-139.48;100.00;61774.03;4981382;28;20049;-70
2021/10/16 01:13:15;;;;;;;12.02;9.30;;;;;;;-139.48;100.00;61774.03;4981273;28;20049;-69
2021/10/16 01:16:00;;;;;;;14.57;10.68;;;;;;;-139.48;100.00;61774.03;4994737;28;20184;-70
2021/10/16 01:18:44;;;;;;;11.05;9.02;;;;;;;-139.48;100.00;61774.03;4994734;28;20161;-70
2021/10/16 01:21:29;;;;;;;10.23;7.70;;;;;;;-139.48;100.00;61774.03;4994251;28;20498;-70
2021/10/16 01:24:15;;;;;;;11.68;7.40;;;;;;;-139.48;100.00;61774.03;4994650;28;20045;-69
2021/10/16 01:26:59;;;;;;;13.30;8.65;;;;;;;-139.48;100.00;61774.03;4994468;28;20052;-70
2021/10/16 01:29:44;;;;;;;16.42;10.68;;;;;;;-139.48;100.00;61774.03;4994738;28;20112;-70
2021/10/16 01:32:28;;;;;;;14.05;9.80;;;;;;;-139.48;100.00;61774.03;4994375;28;20049;-70
2021/10/16 01:35:13;;;;;;;14.23;10.10;;;;;;;-139.48;100.00;61774.03;4995391;28;20080;-70
2021/10/16 01:37:57;;;;;;;13.80;9.43;;;;;;;-139.48;100.00;61774.03;4980513;28;20462;-70
2021/10/16 01:40:41;;;;;;;16.40;10.10;;;;;;;-139.48;100.00;61774.03;4994351;28;20499;-70
2021/10/16 01:43:28;;;;;;;16.42;10.57;;;;;;;-139.48;100.00;61774.03;4980464;28;20507;-70
2021/10/16 01:46:12;;;;;;;15.27;11.40;;;;;;;-139.48;100.00;61774.03;4980863;28;20565;-70
2021/10/16 01:48:56;;;;;;;13.07;10.43;;;;;;;-139.48;100.00;61774.03;4995309;28;20053;-70
2021/10/16 01:51:42;;;;;;;16.35;10.85;;;;;;;-139.48;100.00;61774.03;4980606;28;20050;-70
2021/10/16 01:54:26;;;;;;;15.77;10.95;;;;;;;-139.48;100.00;61774.03;4994025;28;20431;-70
2021/10/16 01:57:10;;;;;;;14.27;11.15;;;;;;;-139.48;100.00;61774.03;4994436;28;20085;-70
2021/10/16 01:59:53;;;;;;;12.30;10.15;;;;;;;-139.48;100.00;61774.03;4993896;28;20061;-70
2021/10/16 02:02:37;;;;;;;17.85;11.88;;;;;;;-139.48;100.00;61774.03;4994800;28;20129;-70
2021/10/16 02:05:21;;;;;;;15.05;10.80;;;;;;;-139.48;100.00;61774.03;4993806;28;20088;-70
2021/10/16 02:08:06;;;;;;;19.77;11.73;;;;;;;-139.48;100.00;61774.03;4980294;28;20049;-70
2021/10/16 02:10:50;;;;;;;16.58;12.40;;;;;;;-139.48;100.00;61774.03;4993859;28;20069;-70
2021/10/16 02:13:34;;;;;;;16.58;11.82;;;;;;;-139.48;100.00;61774.03;4993844;28;20053;-70
2021/10/16 02:16:18;;;;;;;16.75;11.43;;;;;;;-139.48;100.00;61774.03;4993526;28;20550;-70
2021/10/16 02:19:03;;;;;;;18.63;12.32;;;;;;;-139.48;100.00;61774.03;4993800;28;20053;-70
2021/10/16 02:21:47;;;;;;;17.95;12.27;;;;;;;-139.48;100.00;61774.03;4980002;28;20049;-70
2021/10/16 02:24:31;;;;;;;18.05;12.35;;;;;;;-139.48;100.00;61774.03;4993771;28;20218;-70
2021/10/16 02:27:14;;;;;;;16.52;11.40;;;;;;;-139.48;100.00;61774.03;4993311;28;20044;-70
2021/10/16 02:29:59;;;;;;;19.10;11.82;;;;;;;-139.48;100.00;61774.03;4993629;28;20065;-70
2021/10/16 02:32:43;;;;;;;18.92;12.48;;;;;;;-139.48;100.00;61774.03;4992623;28;20053;-70
2021/10/16 02:35:27;;;;;;;16.88;12.18;;;;;;;-139.48;100.00;61774.03;4979764;28;20049;-70
2021/10/16 02:38:11;;;;;;;19.95;11.55;;;;;;;-139.48;100.00;61774.03;4979739;28;20049;-70
2021/10/16 02:40:55;;;;;;;19.05;11.40;;;;;;;-139.48;100.00;61774.03;4993675;28;20550;-70
2021/10/16 02:43:39;;;;;;;20.60;11.98;;;;;;;-139.48;100.00;61774.03;4993437;28;20093;-70
2021/10/16 02:46:23;;;;;;;16.42;12.70;;;;;;;-139.48;100.00;61774.03;4993280;28;20068;-70
2021/10/16 02:49:07;;;;;;;18.50;12.15;;;;;;;-139.48;100.00;61774.03;4993310;28;20089;-70
2021/10/16 02:51:51;;;;;;;18.05;12.85;;;;;;;-139.48;100.00;61774.03;4993516;28;20550;-70
2021/10/16 02:54:35;;;;;;;17.77;12.60;;;;;;;-139.48;100.00;61774.03;4993192;28;20073;-70
2021/10/16 02:57:19;;;;;;;19.23;13.70;;;;;;;-139.48;100.00;61774.03;4979452;28;20054;-69
2021/10/16 03:00:04;;;;;;;20.70;13.38;;;;;;;-139.48;100.00;61774.03;4993213;28;20057;-70
2021/10/16 03:02:48;;;;;;;19.13;12.32;;;;;;;-139.48;100.00;61774.03;4994143;28;20454;-70
2021/10/16 03:05:32;;;;;;;19.52;13.07;;;;;;;-139.48;100.00;61774.03;4993196;28;20057;-70
2021/10/16 03:08:16;;;;;;;20.20;13.80;;;;;;;-139.48;100.00;61774.03;4992837;28;20418;-70
2021/10/16 03:11:00;;;;;;;22.30;13.27;;;;;;;-139.48;100.00;61774.03;4994093;28;20140;-70
2021/10/16 03:13:44;;;;;;;21.85;13.80;;;;;;;-139.48;100.00;61774.03;4992697;28;20096;-69
2021/10/16 03:16:28;;;;;;;21.92;13.35;;;;;;;-139.48;100.00;61774.03;4979233;28;20118;-70
2021/10/16 03:19:12;;;;;;;21.67;14.50;;;;;;;-139.48;100.00;61774.03;4992747;28;20069;-70
2021/10/16 03:21:56;;;;;;;20.80;14.23;;;;;;;-139.48;100.00;61774.03;4979257;28;20120;-70
2021/10/16 03:24:40;;;;;;;22.02;13.90;;;;;;;-139.48;100.00;61774.03;4992996;28;20048;-70
2021/10/16 03:27:24;;;;;;;21.30;13.85;;;;;;;-139.48;100.00;61774.03;4993580;28;20049;-70
2021/10/16 03:30:08;;;;;;;20.40;13.35;;;;;;;-139.48;100.00;61774.03;4979282;28;20443;-70
2021/10/16 03:32:52;;;;;;;23.80;14.38;;;;;;;-139.48;100.00;61774.03;4979097;28;20101;-70
2021/10/16 03:35:36;;;;;;;20.02;13.13;;;;;;;-139.48;100.00;61774.03;4993846;28;20088;-70
2021/10/16 03:38:20;;;;;;;20.02;13.43;;;;;;;-139.48;100.00;61774.03;4993506;28;20105;-70
2021/10/16 03:41:04;;;;;;;22.60;14.00;;;;;;;-139.48;100.00;61774.03;4992823;28;20073;-70
2021/10/16 03:43:47;;;;;;;21.73;13.85;;;;;;;-139.48;100.00;61774.03;4994293;28;20048;-69
2021/10/16 03:46:31;;;;;;;29.20;14.35;;;;;;;-139.48;100.00;61774.03;4982520;28;20100;-70
2021/10/16 03:49:15;;;;;;;24.13;14.50;;;;;;;-139.48;100.00;61774.03;4996361;28;20054;-69
2021/10/16 03:51:59;;;;;;;22.25;13.75;;;;;;;-139.48;100.00;61774.03;4982732;28;20129;-69
2021/10/16 03:54:43;;;;;;;21.10;13.93;;;;;;;-139.48;100.00;61774.03;4997510;28;20526;-70
2021/10/16 03:57:27;;;;;;;21.23;13.15;;;;;;;-139.48;100.00;61774.03;4997160;28;20058;-70
2021/10/16 04:00:15;;;;;;;20.40;13.43;;;;;;;-139.48;100.00;61774.03;4996203;28;20073;-70
2021/10/16 04:03:04;;;;;;;19.85;13.18;;;;;;;-139.48;100.00;61774.03;4996373;28;20108;-70
2021/10/16 04:05:48;;;;;;;21.15;12.95;;;;;;;-139.48;100.00;61774.03;4982921;28;20115;-70
2021/10/16 04:08:32;;;;;;;19.00;13.13;;;;;;;-139.48;100.00;61774.03;4996913;28;20188;-70
2021/10/16 04:11:16;;;;;;;20.05;13.98;;;;;;;-139.48;100.00;61774.03;4997414;28;20096;-70
2021/10/16 04:14:00;;;;;;;23.20;13.27;;;;;;;-139.48;100.00;61774.03;4982108;28;20130;-70
2021/10/16 04:16:44;;;;;;;17.33;12.80;;;;;;;-139.48;100.00;61774.03;4996059;28;20057;-69
2021/10/16 04:19:28;;;;;;;21.13;13.43;;;;;;;-139.48;100.00;61774.03;4982301;28;20109;-70
2021/10/16 04:22:12;;;;;;;22.42;13.93;;;;;;;-139.48;100.00;61774.03;4996040;28;20044;-70
2021/10/16 04:24:57;;;;;;;22.58;13.68;;;;;;;-139.48;100.00;61774.03;4982167;28;20528;-70
2021/10/16 04:27:42;;;;;;;21.17;13.43;;;;;;;-139.48;100.00;61774.03;4995719;28;20045;-70
2021/10/16 04:30:26;;;;;;;21.60;13.02;;;;;;;-139.48;100.00;61774.03;5045531;22;20061;-71
2021/10/16 04:33:10;;;;;;;21.17;13.38;;;;;;;-139.48;100.00;61774.03;5001224;28;20053;-70
2021/10/16 04:35:54;;;;;;;19.95;12.32;;;;;;;-139.48;100.00;61774.03;5015389;28;20049;-71
2021/10/16 04:38:44;;;;;;;21.55;12.95;;;;;;;-139.48;100.00;61774.03;5015314;28;20525;-70
2021/10/16 04:41:28;;;;;;;23.65;13.77;;;;;;;-139.48;100.00;61774.03;4996910;28;20134;-70
2021/10/16 04:44:12;;;;;;;23.95;14.48;;;;;;;-139.48;100.00;61774.03;4981646;28;20049;-70
2021/10/16 04:46:56;;;;;;;22.85;13.95;;;;;;;-139.48;100.00;61774.03;4995383;28;20523;-70
2021/10/16 04:49:40;;;;;;;20.45;13.68;;;;;;;-139.48;100.00;61774.03;4995641;28;20093;-70
2021/10/16 04:52:24;;;;;;;21.80;14.52;;;;;;;-139.48;100.00;61774.03;4995750;28;20077;-70
2021/10/16 04:55:08;;;;;;;21.95;14.45;;;;;;;-139.48;100.00;61774.03;4994939;28;20121;-69
2021/10/16 04:57:52;;;;;;;26.42;15.48;;;;;;;-139.48;100.00;61774.03;4981333;28;20105;-70
2021/10/16 05:00:35;;;;;;;22.55;14.50;;;;;;;-139.48;100.00;61774.03;4996324;28;20049;-70
2021/10/16 05:03:19;;;;;;;24.13;15.75;;;;;;;-139.48;100.00;61774.03;4995345;28;20177;-70
2021/10/16 05:06:03;;;;;;;22.27;15.13;;;;;;;-139.48;100.00;61774.03;4981225;28;20517;-70
2021/10/16 05:08:47;;;;;;;;;;;;;;;-139.48;100.00;61774.03;4995216;28;20563;-71
2021/10/16 05:11:31;;;;;;;24.45;15.23;;;;;;;-139.48;100.00;61774.03;4995923;28;20390;-70
2021/10/16 05:14:15;;;;;;;30.15;15.85;;;;;;;-139.48;100.00;61774.03;4994946;28;20096;-70
2021/10/16 05:16:59;;;;;;;24.00;16.33;;;;;;;-139.48;100.00;61774.03;4996189;28;20522;-70
2021/10/16 05:19:43;;;;;;;24.20;16.30;;;;;;;-139.48;100.00;61774.03;4995809;28;20050;-70
2021/10/16 05:22:27;;;;;;;30.95;17.10;;;;;;;-139.48;100.00;61774.03;4994763;28;20061;-70
2021/10/16 05:25:11;;;;;;;23.70;15.65;;;;;;;-139.48;100.00;61774.03;4996076;28;20057;-70
2021/10/16 05:27:56;;;;;;;29.20;17.15;;;;;;;-139.48;100.00;61774.03;4994857;28;20053;-70
2021/10/16 05:30:39;;;;;;;24.98;17.00;;;;;;;-139.48;100.00;61774.03;4994360;28;20061;-70
2021/10/16 05:33:23;;;;;;;24.88;17.08;;;;;;;-139.48;100.00;61774.03;4981078;28;20049;-68
2021/10/16 05:36:07;;;;;;;28.58;16.88;;;;;;;-139.48;100.00;61774.03;4995651;28;20046;-70
2021/10/16 05:38:51;;;;;;;27.00;17.38;;;;;;;-139.48;100.00;61774.03;4994242;28;20049;-70
2021/10/16 05:41:35;;;;;;;26.33;16.95;;;;;;;-139.48;100.00;61774.03;4994561;28;20084;-71
2021/10/16 05:44:19;;;;;;;28.05;17.45;;;;;;;-139.48;100.00;61774.03;4994559;28;20101;-70
2021/10/16 05:47:03;;;;;;;28.48;18.40;;;;;;;-139.48;100.00;61774.03;4994286;28;20549;-70
2021/10/16 05:49:47;;;;;;;30.95;18.25;;;;;;;-139.48;100.00;61774.03;4994252;28;20101;-71
2021/10/16 05:52:31;;;;;;;29.23;18.05;;;;;;;-139.48;100.00;61774.03;4994240;28;20092;-70
2021/10/16 05:55:15;;;;;;;28.33;17.45;;;;;;;-139.48;100.00;61774.03;4994122;28;20534;-70
2021/10/16 05:57:59;;;;;;;25.98;17.52;;;;;;;-139.48;100.00;61774.03;4980828;28;20045;-70
2021/10/16 06:00:42;;;;;;;31.17;18.63;;;;;;;-139.48;100.00;61774.03;4994003;28;20061;-70
2021/10/16 06:03:26;;;;;;;32.83;19.73;;;;;;;-139.48;100.00;61774.03;4980204;28;20518;-70
2021/10/16 06:06:10;;;;;;;29.35;18.60;;;;;;;-139.48;100.00;61774.03;4994060;28;20072;-70
2021/10/16 06:08:54;;;;;;;32.35;18.92;;;;;;;-139.48;100.00;61774.03;4980264;28;20100;-70
2021/10/16 06:11:38;;;;;;;28.67;19.15;;;;;;;-139.48;100.00;61774.03;4994842;28;20112;-70
2021/10/16 06:14:22;;;;;;;33.08;19.65;;;;;;;-139.48;100.00;61774.03;4993955;28;20108;-70
2021/10/16 06:17:09;;;;;;;30.17;19.10;;;;;;;-139.48;100.00;61774.03;4994629;28;20045;-70
2021/10/16 06:19:53;;;;;;;27.00;18.10;;;;;;;-139.48;100.00;61774.03;4994704;28;20129;-68
2021/10/16 06:22:37;;;;;;;31.83;18.75;;;;;;;-139.48;100.00;61774.03;4993785;28;20101;-70
2021/10/16 06:25:21;;;;;;;27.92;18.42;;;;;;;-139.48;100.00;61774.03;4979701;28;20049;-70
2021/10/16 06:28:05;;;;;;;26.08;19.15;;;;;;;-139.48;100.00;61774.03;4979934;28;20133;-70
2021/10/16 06:30:49;;;;;;;27.10;18.40;;;;;;;-139.48;100.00;61774.03;4993283;28;20126;-70
2021/10/16 06:33:33;;;;;;;28.02;18.38;;;;;;;-139.48;100.00;61774.03;4993556;28;20045;-70
2021/10/16 06:36:17;;;;;;;29.80;18.50;;;;;;;-139.48;100.00;61774.03;4993573;28;20412;-70
2021/10/16 06:39:02;;;;;;;29.83;19.50;;;;;;;-139.48;100.00;61774.03;4993299;28;20053;-70
2021/10/16 06:41:46;;;;;;;28.02;18.95;;;;;;;-139.48;100.00;61774.03;4994664;28;20407;-70
2021/10/16 06:44:30;;;;;;;31.63;18.67;;;;;;;-139.48;100.00;61774.03;4993464;28;20045;-69
2021/10/16 06:47:14;;;;;;;33.78;18.92;;;;;;;-139.48;100.00;61774.03;4994202;28;20434;-70
2021/10/16 06:49:58;;;;;;;30.95;18.42;;;;;;;-139.48;100.00;61774.03;4994600;28;20061;-70
2021/10/16 06:52:44;;;;;;;30.65;18.67;;;;;;;-139.48;100.00;61774.03;4994226;28;20482;-70
2021/10/16 06:55:28;;;;;;;33.33;18.52;;;;;;;-139.48;100.00;61774.03;4993257;28;20181;-70
2021/10/16 06:58:13;;;;;;;30.60;17.85;;;;;;;-139.48;100.00;61774.03;4993021;28;20048;-70
2021/10/16 07:00:57;;;;;;;26.00;17.98;;;;;;;-139.48;100.00;61774.03;4979263;28;20132;-70
2021/10/16 07:03:40;;;;;;;28.10;18.67;;;;;;;-139.48;100.00;61774.03;4993507;28;20509;-70
2021/10/16 07:06:24;;;;;;;29.50;19.90;;;;;;;-139.48;100.00;61774.03;4992888;28;20049;-70
2021/10/16 07:09:08;;;;;;;32.42;19.35;;;;;;;-139.48;100.00;61774.03;4993157;28;20135;-70
2021/10/16 07:11:52;;;;;;;30.65;19.33;;;;;;;-139.48;100.00;61774.03;4979111;28;20053;-70
2021/10/16 07:14:36;;;;;;;32.13;19.52;;;;;;;-139.48;100.00;61774.03;4994110;28;20141;-70
2021/10/16 07:17:20;;;;;;;30.70;18.83;;;;;;;-139.48;100.00;61774.03;4993088;28;20065;-70
2021/10/16 07:20:05;;;;;;;28.00;18.52;;;;;;;-139.48;100.00;61774.03;4999111;28;20542;-70
2021/10/16 07:22:49;;;;;;;29.38;18.92;;;;;;;-139.48;100.00;61774.03;4999505;28;20049;-69
2021/10/16 07:25:33;;;;;;;31.27;18.05;;;;;;;-139.48;100.00;61774.03;4985731;28;20065;-70
2021/10/16 07:28:17;;;;;;;30.17;19.48;;;;;;;-139.48;100.00;61774.03;4985405;28;20184;-70
2021/10/16 07:31:01;;;;;;;30.80;18.98;;;;;;;-139.48;100.00;61774.03;4985187;28;20478;-70
2021/10/16 07:33:45;;;;;;;36.25;19.40;;;;;;;-139.48;100.00;61774.03;5000325;28;20081;-70
2021/10/16 07:36:34;;;;;;;30.75;19.25;;;;;;;-139.48;100.00;61774.03;5000125;28;20069;-70
2021/10/16 07:39:18;;;;;;;30.20;18.92;;;;;;;-139.48;100.00;61774.03;4985862;28;20041;-70
2021/10/16 07:42:02;;;;;;;33.95;19.67;;;;;;;-139.48;100.00;61774.03;4999330;28;20053;-70
2021/10/16 07:44:46;;;;;;;29.13;18.88;;;;;;;-139.48;100.00;61774.03;5000337;28;20112;-71
2021/10/16 07:47:30;;;;;;;30.90;19.67;;;;;;;-139.48;100.00;61774.03;4985778;28;20053;-70
2021/10/16 07:50:14;;;;;;;32.08;18.83;;;;;;;-139.48;100.00;61774.03;4999150;28;20054;-70
2021/10/16 07:52:58;;;;;;;27.17;18.25;;;;;;;-139.48;100.00;61774.03;4998997;28;20407;-70
2021/10/16 07:55:42;;;;;;;30.17;18.55;;;;;;;-139.48;100.00;61774.03;4998936;28;20470;-68
2021/10/16 07:58:26;;;;;;;28.23;17.45;;;;;;;-139.48;100.00;61774.03;4999527;28;20148;-69
2021/10/16 08:01:11;;;;;;;26.88;16.67;;;;;;;-139.48;100.00;61774.03;4998896;28;20061;-70
2021/10/16 08:03:55;;;;;;;27.27;17.55;;;;;;;-139.48;100.00;61774.03;4998998;28;20399;-68
2021/10/16 08:06:39;;;;;;;28.00;17.35;;;;;;;-139.48;100.00;61774.03;4999182;28;20061;-68
2021/10/16 08:09:22;;;;;;;31.15;19.65;;;;;;;-139.48;100.00;61774.03;4985491;28;20045;-70
2021/10/16 08:12:06;;;;;;;30.45;19.13;;;;;;;-139.48;100.00;61774.03;4985519;28;20053;-70
2021/10/16 08:14:50;;;;;;;32.45;18.13;;;;;;;-139.48;100.00;61774.03;4999017;28;20557;-70
2021/10/16 08:17:35;;;;;;;31.48;19.77;;;;;;;-139.48;100.00;61774.03;4999118;28;20097;-70
2021/10/16 08:20:19;;;;;;;36.92;22.30;;;;;;;-139.48;100.00;61774.03;4998782;28;20466;-70
2021/10/16 08:23:05;;;;;;;45.00;27.33;;;;;;;-139.48;100.00;61774.03;4985207;28;20045;-69
2021/10/16 08:25:50;;;;;;;63.10;35.10;;;;;;;-139.48;100.00;61774.03;4999038;28;20092;-69
2021/10/16 08:28:34;;;;;;;50.33;27.42;;;;;;;-139.48;100.00;61774.03;4998718;28;20053;-69
2021/10/16 08:31:18;;;;;;;49.63;26.60;;;;;;;-139.48;100.00;61774.03;4982793;28;20049;-69
2021/10/16 08:34:02;;;;;;;49.42;27.17;;;;;;;-139.48;100.00;61774.03;4982025;28;20053;-70
2021/10/16 08:36:46;;;;;;;54.22;25.45;;;;;;;-139.48;100.00;61774.03;4995745;28;20129;-69
2021/10/16 08:39:30;;;;;;;48.67;25.67;;;;;;;-139.48;100.00;61774.03;4995699;28;20058;-69
2021/10/16 08:42:14;;;;;;;47.20;25.13;;;;;;;-139.48;100.00;61774.03;4981890;28;20053;-68
2021/10/16 08:45:01;;;;;;;46.22;23.58;;;;;;;-139.48;100.00;61774.03;4996390;28;20053;-69
2021/10/16 08:47:46;;;;;;;46.17;23.70;;;;;;;-139.48;100.00;61774.03;4982097;28;20056;-70
2021/10/16 08:50:31;;;;;;;45.88;23.63;;;;;;;-139.48;100.00;61774.03;4996384;28;20097;-68
2021/10/16 08:53:15;;;;;;;46.10;23.90;;;;;;;-139.48;100.00;61774.03;4995417;28;20054;-69
2021/10/16 08:56:04;;;;;;;49.03;26.08;;;;;;;-139.48;100.00;61774.03;4995352;28;20108;-69
2021/10/16 08:58:48;;;;;;;44.70;23.42;;;;;;;-139.48;100.00;61774.03;4982170;28;20045;-69
2021/10/16 09:01:32;;;;;;;37.78;20.17;;;;;;;-139.48;100.00;61774.03;4996268;28;20088;-68
2021/10/16 09:04:21;;;;;;;37.42;19.50;;;;;;;-139.48;100.00;61774.03;4981605;28;20410;-69
2021/10/16 09:07:24;;;;;;;38.05;19.42;;;;;;;-139.48;100.00;61774.03;4995238;28;20053;-69
2021/10/16 09:10:22;;;;;;;34.67;18.13;;;;;;;-139.48;100.00;61774.03;4981380;28;20068;-69
2021/10/16 09:13:06;;;;;;;42.42;19.00;;;;;;;-139.48;100.00;61774.03;4981102;28;20440;-68
2021/10/16 09:15:50;;;;;;;38.22;20.55;;;;;;;-139.48;100.00;61774.03;4996012;28;20133;-68
2021/10/16 09:18:34;;;;;;;36.20;19.30;;;;;;;-139.48;100.00;61774.03;4995675;28;20154;-68
2021/10/16 09:21:17;;;;;;;30.85;18.63;;;;;;;-139.48;100.00;61774.03;4981115;28;20141;-68
2021/10/16 09:24:17;;;;;;;36.63;18.58;;;;;;;-139.48;100.00;61774.03;4981049;28;20045;-68
2021/10/16 09:27:06;;;;;;;28.75;16.98;;;;;;;-139.48;100.00;61774.03;4995902;28;20053;-68
2021/10/16 09:29:54;;;;;;;28.40;16.42;;;;;;;-139.48;100.00;61774.03;4994361;28;20096;-68
2021/10/16 09:32:38;;;;;;;27.55;15.90;;;;;;;-139.48;100.00;61774.03;4980800;28;20053;-68
2021/10/16 09:35:34;;;;;;;25.75;15.85;;;;;;;-139.48;100.00;61774.03;4994684;28;20048;-68
2021/10/16 09:38:18;;;;;;;24.05;13.98;;;;;;;-139.48;100.00;61774.03;4994576;28;20136;-68
2021/10/16 09:41:02;;;;;;;25.92;15.45;;;;;;;-139.48;100.00;61774.03;4980718;28;20048;-68
2021/10/16 09:43:46;;;;;;;29.65;17.48;;;;;;;-139.48;100.00;61774.03;4994131;28;20100;-68
2021/10/16 09:46:30;;;;;;;27.38;17.17;;;;;;;-139.48;100.00;61774.03;4994552;28;20603;-67
2021/10/16 09:49:14;;;;;;;25.38;16.25;;;;;;;-139.48;100.00;61774.03;4994249;28;20081;-68
2021/10/16 09:51:59;;;;;;;26.27;15.73;;;;;;;-139.48;100.00;61774.03;4995159;28;20053;-68
2021/10/16 09:54:44;;;;;;;25.52;15.85;;;;;;;-139.48;100.00;61774.03;4994156;28;20096;-67
2021/10/16 09:57:29;;;;;;;24.42;15.50;;;;;;;-139.48;100.00;61774.03;4994052;28;20073;-68
2021/10/16 10:00:14;;;;;;;25.48;16.45;;;;;;;-139.48;100.00;61774.03;4980098;28;20053;-68
2021/10/16 10:02:58;;;;;;;92.20;59.55;;;;;;;-139.48;100.00;61774.03;4980588;28;20114;-68
2021/10/16 10:05:43;;;;;;;27.02;16.30;;;;;;;-139.48;100.00;61774.03;4993873;28;20527;-69
2021/10/16 10:08:28;;;;;;;25.52;16.15;;;;;;;-139.48;100.00;61774.03;4994073;28;20096;-70
2021/10/16 10:11:12;;;;;;;27.42;15.88;;;;;;;-139.48;100.00;61774.03;4994621;28;20455;-69
2021/10/16 10:13:56;;;;;;;25.48;17.58;;;;;;;-139.48;100.00;61774.03;4993823;28;20124;-69
2021/10/16 10:16:41;;;;;;;26.95;16.88;;;;;;;-139.48;100.00;61774.03;4994179;28;20057;-69
2021/10/16 10:19:25;;;;;;;26.50;17.58;;;;;;;-139.48;100.00;61774.03;4994590;28;20077;-69
2021/10/16 10:22:16;;;;;;;27.00;17.20;;;;;;;-139.48;100.00;61774.03;4979884;28;20423;-69
2021/10/16 10:25:03;;;;;;;26.52;17.45;;;;;;;-139.48;100.00;61774.03;4980253;28;20069;-69
2021/10/16 10:27:47;;;;;;;25.83;17.38;;;;;;;-139.48;100.00;61774.03;4993391;28;20053;-69
2021/10/16 10:30:34;;;;;;;23.33;16.48;;;;;;;-139.48;100.00;61774.03;4993301;28;20064;-66
2021/10/16 10:33:20;;;;;;;35.13;20.08;;;;;;;-139.48;100.00;61774.03;4993443;28;20049;-66
2021/10/16 10:36:03;;;;;;;24.30;15.30;;;;;;;-139.48;100.00;61774.03;4993472;28;20180;-68
2021/10/16 10:38:48;;;;;;;26.27;17.83;;;;;;;-139.48;100.00;61774.03;4994151;28;20053;-68
2021/10/16 10:41:35;;;;;;;25.90;16.98;;;;;;;-139.48;100.00;61774.03;4993283;28;20153;-68
2021/10/16 10:44:46;;;;;;;25.88;16.65;;;;;;;-139.48;100.00;61774.03;4993543;28;20046;-68
2021/10/16 10:47:33;;;;;;;27.50;16.60;;;;;;;-139.48;100.00;61774.03;4993054;28;20056;-68
2021/10/16 10:50:40;;;;;;;29.38;17.88;;;;;;;-139.48;100.00;61774.03;4993259;28;20510;-68
2021/10/16 10:53:35;;;;;;;27.23;17.60;;;;;;;-139.48;100.00;61774.03;4993510;28;20087;-68
2021/10/16 10:56:20;;;;;;;30.25;17.92;;;;;;;-139.48;100.00;61774.03;4979172;28;20517;-68
2021/10/16 10:59:08;;;;;;;27.52;18.40;;;;;;;-139.48;100.00;61774.03;4979801;28;20447;-68
2021/10/16 11:02:05;;;;;;;93.50;49.50;;;;;;;-139.48;100.00;61774.03;4979833;28;20502;-68
2021/10/16 11:04:52;;;;;;;23.40;15.68;;;;;;;-139.48;100.00;61774.03;4979791;28;20048;-68
2021/10/16 11:07:55;;;;;;;22.63;15.63;;;;;;;-139.48;100.00;61774.03;4994335;28;20133;-68
2021/10/16 11:10:41;;;;;;;23.70;15.55;;;;;;;-139.48;100.00;61774.03;4993203;28;20462;-68
2021/10/16 11:13:25;;;;;;;22.42;15.15;;;;;;;-139.48;100.00;61774.03;4991984;28;20053;-67
2021/10/16 11:16:09;;;;;;;24.05;15.15;;;;;;;-139.48;100.00;61774.03;4993335;28;20057;-67
2021/10/16 11:18:57;;;;;;;22.08;15.27;;;;;;;-139.48;100.00;61774.03;4992528;28;20049;-68
2021/10/16 11:21:41;;;;;;;21.67;14.52;;;;;;;-139.48;100.00;61774.03;4992082;28;20427;-68
2021/10/16 11:24:27;;;;;;;20.95;13.55;;;;;;;-139.48;100.00;61774.03;4993381;28;20142;-67
2021/10/16 11:27:10;;;;;;;21.00;14.55;;;;;;;-139.48;100.00;61774.03;4978607;28;20050;-68
2021/10/16 11:29:54;;;;;;;23.15;15.18;;;;;;;-139.48;100.00;61774.03;4993193;28;20097;-69
2021/10/16 11:32:38;;;;;;;22.67;14.38;;;;;;;-139.48;100.00;61774.03;4991956;28;20058;-69
2021/10/16 11:35:22;;;;;;;24.88;17.02;;;;;;;-139.48;100.00;61774.03;4993224;28;20546;-68
2021/10/16 11:38:08;;;;;;;32.15;21.50;;;;;;;-139.48;100.00;61774.03;4991813;28;20081;-67
2021/10/16 11:40:54;;;;;;;57.80;40.53;;;;;;;-139.48;100.00;61774.03;4978490;28;20096;-68
2021/10/16 11:43:40;;;;;;;26.92;19.30;;;;;;;-139.48;100.00;61774.03;4991878;28;20054;-68
2021/10/16 11:46:24;;;;;;;32.85;23.17;;;;;;;-139.48;100.00;61774.03;4991836;28;20057;-68
2021/10/16 11:49:09;;;;;;;24.88;17.05;;;;;;;-139.48;100.00;61774.03;4993037;28;20057;-68
2021/10/16 11:51:53;;;;;;;26.35;17.75;;;;;;;-139.48;100.00;61774.03;4993334;28;20510;-68
2021/10/16 11:54:36;;;;;;;31.02;19.75;;;;;;;-139.48;100.00;61774.03;4992765;28;20561;-68
2021/10/16 11:57:26;;;;;;;35.10;22.73;;;;;;;-139.48;100.00;61774.03;4991917;28;20053;-68
2021/10/16 12:00:25;;;;;;;30.90;19.73;;;;;;;-139.48;100.00;61774.03;4991526;28;20092;-70
2021/10/16 12:03:13;;;;;;;29.92;19.52;;;;;;;-139.48;100.00;61774.03;4992232;28;20161;-70
2021/10/16 12:06:00;;;;;;;32.88;20.13;;;;;;;-139.48;100.00;61774.03;4994122;28;20126;-68
2021/10/16 12:08:54;;;;;;;41.05;28.02;;;;;;;-139.48;100.00;61774.03;4982053;28;20061;-68
2021/10/16 12:11:38;;;;;;;30.05;19.98;;;;;;;-139.48;100.00;61774.03;4995711;28;20100;-68
2021/10/16 12:14:22;;;;;;;28.02;19.88;;;;;;;-139.48;100.00;61774.03;4995603;28;20046;-68